createdAt,value
2022-11-14T00:07:14.225Z,49.85
2022-11-14T00:17:15.785Z,49.86
2022-11-14T00:27:17.194Z,49.94
2022-11-14T00:37:18.690Z,49.91
2022-11-14T00:47:20.116Z,50.05
2022-11-14T00:57:21.491Z,50.03
2022-11-14T01:07:22.889Z,49.91
2022-11-14T01:17:24.278Z,50.14
2022-11-14T01:27:25.736Z,50.15
2022-11-14T01:37:27.144Z,50.12
2022-11-14T01:47:30.873Z,50.17
2022-11-14T01:57:34.499Z,50.23
2022-11-14T02:07:38.303Z,50.23
2022-11-14T02:17:40.504Z,50.42
2022-11-14T02:27:41.877Z,50.27
2022-11-14T02:37:43.346Z,50.33
2022-11-14T02:47:45.133Z,50.19
2022-11-14T02:57:46.534Z,50.17
2022-11-14T03:07:48.085Z,49.83
2022-11-14T03:17:49.803Z,50.03
2022-11-14T03:27:51.188Z,50.06
2022-11-14T03:37:56.202Z,50.04
2022-11-14T03:47:58.060Z,50.12
2022-11-14T03:57:59.714Z,50.31
2022-11-14T04:08:01.091Z,50.19
2022-11-14T04:18:02.466Z,50.25
2022-11-14T04:28:04.039Z,50.19
2022-11-14T04:38:05.580Z,50.32
2022-11-14T04:48:06.961Z,50.24
2022-11-14T04:58:08.822Z,50.20
2022-11-14T05:08:10.351Z,50.37
2022-11-14T05:18:11.810Z,49.73
2022-11-14T05:28:13.625Z,49.13
2022-11-14T05:38:15.608Z,48.53
2022-11-14T05:48:17.272Z,48.32
2022-11-14T05:58:19.397Z,48.48
2022-11-14T06:08:20.931Z,48.35
2022-11-14T06:18:22.320Z,48.29
2022-11-14T06:28:23.700Z,48.00
2022-11-14T06:38:25.238Z,47.87
2022-11-14T06:48:26.786Z,47.56
2022-11-14T06:58:36.569Z,47.48
2022-11-14T07:08:38.290Z,46.97
2022-11-14T07:18:39.830Z,46.78
2022-11-14T07:28:42.937Z,46.80
2022-11-14T07:38:44.543Z,46.29
2022-11-14T07:48:46.037Z,46.18
2022-11-14T07:58:47.590Z,45.13
2022-11-14T08:08:49.015Z,45.32
2022-11-14T08:18:50.409Z,45.31
2022-11-14T08:28:54.683Z,45.30
2022-11-14T08:39:01.558Z,45.95
2022-11-14T08:49:03.364Z,45.96
2022-11-14T08:59:05.024Z,45.85
2022-11-14T09:09:06.393Z,45.68
2022-11-14T09:19:07.841Z,45.19
2022-11-14T09:29:09.230Z,46.31
2022-11-14T09:39:10.620Z,46.50
2022-11-14T09:49:37.987Z,45.95
2022-11-14T09:59:39.353Z,46.37
2022-11-14T10:09:52.104Z,46.38
2022-11-14T10:20:12.090Z,46.76
2022-11-14T10:30:17.068Z,46.59
2022-11-14T10:40:22.859Z,46.78
2022-11-14T10:50:56.029Z,46.45
2022-11-14T11:01:19.058Z,45.42
2022-11-14T11:11:32.550Z,46.17
2022-11-14T11:21:46.880Z,46.13
2022-11-14T11:31:55.664Z,45.71
2022-11-14T11:42:13.758Z,46.07
2022-11-14T11:52:33.688Z,45.45
2022-11-14T12:02:36.131Z,45.04
2022-11-14T12:12:43.616Z,45.26
2022-11-14T12:23:09.712Z,45.86
2022-11-14T12:33:20.801Z,45.99
2022-11-14T12:43:35.964Z,45.83
2022-11-14T12:53:39.332Z,45.45
2022-11-14T13:03:59.506Z,45.65
2022-11-14T13:14:20.378Z,45.92
2022-11-14T13:24:21.907Z,46.51
2022-11-14T13:35:06.471Z,46.26
2022-11-14T13:45:35.016Z,46.02
2022-11-14T13:55:52.162Z,45.91
2022-11-14T14:06:15.999Z,46.29
2022-11-14T14:16:44.427Z,46.50
2022-11-14T14:27:14.121Z,45.98
2022-11-14T14:37:22.325Z,46.07
2022-11-14T14:47:33.925Z,46.46
2022-11-14T14:57:35.371Z,46.44
2022-11-14T15:07:38.429Z,46.54
2022-11-14T15:17:39.876Z,46.63
2022-11-14T15:27:51.685Z,46.95
2022-11-14T15:38:15.620Z,46.81
2022-11-14T15:48:21.053Z,46.71
2022-11-14T15:58:28.379Z,47.02
2022-11-14T16:08:30.798Z,47.05
2022-11-14T16:18:32.378Z,47.13
2022-11-14T16:28:33.816Z,46.91
2022-11-14T16:38:35.182Z,47.02
2022-11-14T16:48:36.552Z,47.04
2022-11-14T16:58:39.758Z,46.93
2022-11-14T17:08:41.210Z,47.28
2022-11-14T17:18:43.054Z,47.33
2022-11-14T17:28:46.117Z,47.63
2022-11-14T17:38:47.530Z,47.81
2022-11-14T17:48:48.934Z,47.76
2022-11-14T17:58:51.354Z,47.90
2022-11-14T18:08:52.767Z,47.73
2022-11-14T18:18:55.983Z,47.87
2022-11-14T18:28:58.060Z,47.78
2022-11-14T18:38:59.457Z,48.01
2022-11-14T18:49:00.872Z,47.77
2022-11-14T18:59:02.271Z,48.06
2022-11-14T19:09:10.596Z,48.02
2022-11-14T19:19:12.758Z,48.02
2022-11-14T19:29:14.215Z,48.24
2022-11-14T19:39:15.587Z,48.25
2022-11-14T19:49:16.989Z,48.28
2022-11-14T19:59:23.082Z,48.37
2022-11-14T20:09:25.933Z,47.85
2022-11-14T20:19:27.746Z,47.79
2022-11-14T20:29:30.549Z,47.86
2022-11-14T20:39:32.038Z,47.82
2022-11-14T20:49:33.494Z,47.73
2022-11-14T20:59:34.968Z,47.76
2022-11-14T21:09:36.370Z,47.83
2022-11-14T21:19:37.827Z,47.86
2022-11-14T21:29:39.217Z,48.04
2022-11-14T21:39:40.627Z,47.98
2022-11-14T21:49:42.062Z,48.23
2022-11-14T21:59:43.495Z,48.16
2022-11-14T22:09:45.606Z,48.24
2022-11-14T22:19:47.202Z,48.21
2022-11-14T22:29:48.671Z,48.24
2022-11-14T22:39:50.121Z,48.23
2022-11-14T22:49:51.565Z,48.17
2022-11-14T22:59:53.051Z,48.14
2022-11-14T23:09:54.429Z,48.22
2022-11-14T23:19:56.277Z,48.18
2022-11-14T23:29:57.647Z,48.21
2022-11-14T23:39:59.023Z,48.18
2022-11-14T23:50:00.624Z,48.05
